sensor_id;sensor_type;location;lat;lon;timestamp;pressure;altitude;pressure_sealevel;temperature;humidity
57086;BME280;42964;42.910;23.792;2023-02-28T00:04:31;98304.59;;;6.31;100.00
57086;BME280;42964;42.910;23.792;2023-02-28T00:09:30;98310.78;;;6.39;99.48
57086;BME280;42964;42.910;23.792;2023-02-28T00:14:30;98247.72;;;6.24;100.00
57086;BME280;42964;42.910;23.792;2023-02-28T00:19:29;98310.31;;;6.56;99.69
57086;BME280;42964;42.910;23.792;2023-02-28T00:24:28;98286.72;;;6.39;99.58
57086;BME280;42964;42.910;23.792;2023-02-28T00:29:27;98312.88;;;6.54;99.79
57086;BME280;42964;42.910;23.792;2023-02-28T00:34:26;98292.31;;;6.57;99.62
57086;BME280;42964;42.910;23.792;2023-02-28T00:39:25;98308.66;;;6.58;99.56
57086;BME280;42964;42.910;23.792;2023-02-28T00:44:24;98319.94;;;6.63;100.00
57086;BME280;42964;42.910;23.792;2023-02-28T00:49:23;98297.53;;;6.60;99.77
57086;BME280;42964;42.910;23.792;2023-02-28T00:54:23;98294.84;;;6.56;100.00
57086;BME280;42964;42.910;23.792;2023-02-28T00:59:22;98306.22;;;6.64;99.37
57086;BME280;42964;42.910;23.792;2023-02-28T01:04:21;98301.22;;;6.70;99.93
57086;BME280;42964;42.910;23.792;2023-02-28T01:09:20;98309.81;;;6.71;99.24
57086;BME280;42964;42.910;23.792;2023-02-28T01:14:19;98280.06;;;6.47;98.36
57086;BME280;42964;42.910;23.792;2023-02-28T01:19:18;98306.03;;;6.20;98.48
57086;BME280;42964;42.910;23.792;2023-02-28T01:24:17;98306.69;;;6.13;98.91
57086;BME280;42964;42.910;23.792;2023-02-28T01:29:16;98297.66;;;6.29;99.40
57086;BME280;42964;42.910;23.792;2023-02-28T01:34:15;98300.47;;;6.38;99.12
57086;BME280;42964;42.910;23.792;2023-02-28T01:39:14;98307.41;;;6.42;99.52
57086;BME280;42964;42.910;23.792;2023-02-28T01:49:50;98302.81;;;6.65;99.80
57086;BME280;42964;42.910;23.792;2023-02-28T01:54:52;98295.28;;;6.74;99.78
57086;BME280;42964;42.910;23.792;2023-02-28T02:00:03;98292.81;;;6.79;99.63
57086;BME280;42964;42.910;23.792;2023-02-28T02:05:10;98281.34;;;6.66;98.48
57086;BME280;42964;42.910;23.792;2023-02-28T02:42:26;98324.63;;;6.79;98.93
57086;BME280;42964;42.910;23.792;2023-02-28T02:47:29;98327.31;;;6.84;98.67
57086;BME280;42964;42.910;23.792;2023-02-28T02:52:43;98276.75;;;6.53;98.85
57086;BME280;42964;42.910;23.792;2023-02-28T03:02:46;98341.38;;;6.97;98.47
57086;BME280;42964;42.910;23.792;2023-02-28T03:07:47;98348.31;;;6.99;99.40
57086;BME280;42964;42.910;23.792;2023-02-28T03:12:53;98343.31;;;7.07;98.99
57086;BME280;42964;42.910;23.792;2023-02-28T03:18:08;98345.91;;;7.07;98.26
57086;BME280;42964;42.910;23.792;2023-02-28T03:23:31;98351.53;;;6.91;97.94
57086;BME280;42964;42.910;23.792;2023-02-28T03:29:42;98353.41;;;6.60;97.53
57086;BME280;42964;42.910;23.792;2023-02-28T03:39:21;98331.91;;;6.25;97.47
57086;BME280;42964;42.910;23.792;2023-02-28T03:44:34;98360.31;;;6.28;98.43
57086;BME280;42964;42.910;23.792;2023-02-28T03:49:42;98361.22;;;6.28;98.74
57086;BME280;42964;42.910;23.792;2023-02-28T03:54:48;98369.84;;;6.30;98.84
57086;BME280;42964;42.910;23.792;2023-02-28T03:59:54;98372.53;;;6.33;98.57
57086;BME280;42964;42.910;23.792;2023-02-28T04:04:54;98374.84;;;6.24;98.44
57086;BME280;42964;42.910;23.792;2023-02-28T04:09:53;98392.16;;;6.28;98.24
57086;BME280;42964;42.910;23.792;2023-02-28T04:14:52;98385.16;;;6.24;98.45
57086;BME280;42964;42.910;23.792;2023-02-28T04:19:51;98412.78;;;6.28;98.46
57086;BME280;42964;42.910;23.792;2023-02-28T04:24:50;98391.59;;;6.40;98.01
57086;BME280;42964;42.910;23.792;2023-02-28T04:29:49;98399.91;;;6.30;98.72
57086;BME280;42964;42.910;23.792;2023-02-28T04:34:48;98401.44;;;6.23;98.15
57086;BME280;42964;42.910;23.792;2023-02-28T04:39:47;98398.88;;;6.23;98.97
57086;BME280;42964;42.910;23.792;2023-02-28T04:44:46;98396.50;;;6.31;98.90
57086;BME280;42964;42.910;23.792;2023-02-28T04:49:45;98359.63;;;6.00;98.54
57086;BME280;42964;42.910;23.792;2023-02-28T04:54:44;98353.25;;;5.87;98.73
57086;BME280;42964;42.910;23.792;2023-02-28T04:59:43;98398.28;;;6.02;99.75
57086;BME280;42964;42.910;23.792;2023-02-28T05:04:42;98408.34;;;6.24;99.36
57086;BME280;42964;42.910;23.792;2023-02-28T05:09:41;98411.81;;;6.25;98.83
57086;BME280;42964;42.910;23.792;2023-02-28T05:14:40;98413.59;;;6.27;98.10
57086;BME280;42964;42.910;23.792;2023-02-28T05:19:39;98422.56;;;6.10;99.27
57086;BME280;42964;42.910;23.792;2023-02-28T05:24:38;98427.22;;;6.23;98.74
57086;BME280;42964;42.910;23.792;2023-02-28T05:29:37;98426.59;;;6.32;99.32
57086;BME280;42964;42.910;23.792;2023-02-28T05:34:41;98429.13;;;6.30;99.07
57086;BME280;42964;42.910;23.792;2023-02-28T05:39:40;98429.53;;;6.14;98.87
57086;BME280;42964;42.910;23.792;2023-02-28T05:44:39;98436.38;;;6.12;99.58
57086;BME280;42964;42.910;23.792;2023-02-28T05:49:38;98436.22;;;6.39;100.00
57086;BME280;42964;42.910;23.792;2023-02-28T05:54:37;98358.19;;;6.11;99.81
57086;BME280;42964;42.910;23.792;2023-02-28T05:59:36;98438.97;;;6.78;99.60
57086;BME280;42964;42.910;23.792;2023-02-28T06:04:38;98433.13;;;6.86;99.35
57086;BME280;42964;42.910;23.792;2023-02-28T06:09:37;98438.50;;;6.95;99.22
57086;BME280;42964;42.910;23.792;2023-02-28T06:14:37;98449.53;;;6.54;98.39
57086;BME280;42964;42.910;23.792;2023-02-28T06:19:37;98456.31;;;6.51;98.49
57086;BME280;42964;42.910;23.792;2023-02-28T06:24:37;98462.25;;;6.48;98.50
57086;BME280;42964;42.910;23.792;2023-02-28T06:29:36;98464.25;;;6.27;98.31
57086;BME280;42964;42.910;23.792;2023-02-28T06:34:38;98432.88;;;6.10;99.13
57086;BME280;42964;42.910;23.792;2023-02-28T06:39:37;98476.94;;;6.51;99.09
57086;BME280;42964;42.910;23.792;2023-02-28T06:44:36;98483.31;;;6.65;98.67
57086;BME280;42964;42.910;23.792;2023-02-28T06:49:35;98464.88;;;6.50;99.41
57086;BME280;42964;42.910;23.792;2023-02-28T06:54:36;98467.97;;;6.36;98.95
57086;BME280;42964;42.910;23.792;2023-02-28T06:59:35;98484.09;;;6.29;99.01
57086;BME280;42964;42.910;23.792;2023-02-28T07:04:35;98486.81;;;6.04;100.00
57086;BME280;42964;42.910;23.792;2023-02-28T07:09:34;98480.66;;;6.29;100.00
57086;BME280;42964;42.910;23.792;2023-02-28T07:14:33;98472.41;;;6.42;100.00
57086;BME280;42964;42.910;23.792;2023-02-28T07:19:32;98475.03;;;6.44;99.53
57086;BME280;42964;42.910;23.792;2023-02-28T07:24:31;98485.72;;;6.57;100.00
57086;BME280;42964;42.910;23.792;2023-02-28T07:29:30;98429.91;;;6.26;100.00
57086;BME280;42964;42.910;23.792;2023-02-28T07:34:29;98468.88;;;6.38;99.40
57086;BME280;42964;42.910;23.792;2023-02-28T07:39:28;98478.53;;;6.46;99.53
57086;BME280;42964;42.910;23.792;2023-02-28T07:44:27;98474.59;;;6.60;99.33
57086;BME280;42964;42.910;23.792;2023-02-28T07:49:26;98481.00;;;6.74;99.61
57086;BME280;42964;42.910;23.792;2023-02-28T07:54:25;98473.53;;;6.52;99.65
57086;BME280;42964;42.910;23.792;2023-02-28T07:59:24;98469.41;;;6.58;99.61
57086;BME280;42964;42.910;23.792;2023-02-28T08:04:23;98479.19;;;6.70;99.63
57086;BME280;42964;42.910;23.792;2023-02-28T08:09:22;98464.94;;;6.85;99.49
57086;BME280;42964;42.910;23.792;2023-02-28T08:14:21;98475.84;;;7.09;99.89
57086;BME280;42964;42.910;23.792;2023-02-28T08:19:20;98456.50;;;7.27;98.21
57086;BME280;42964;42.910;23.792;2023-02-28T08:24:19;98474.13;;;7.43;97.88
57086;BME280;42964;42.910;23.792;2023-02-28T08:29:18;98437.34;;;7.18;96.38
57086;BME280;42964;42.910;23.792;2023-02-28T08:34:17;98472.09;;;7.33;95.40
57086;BME280;42964;42.910;23.792;2023-02-28T08:39:16;98453.09;;;7.29;95.03
57086;BME280;42964;42.910;23.792;2023-02-28T08:44:14;98484.72;;;7.55;95.01
57086;BME280;42964;42.910;23.792;2023-02-28T08:49:13;98462.38;;;7.57;94.62
57086;BME280;42964;42.910;23.792;2023-02-28T08:54:12;98484.28;;;7.75;91.84
57086;BME280;42964;42.910;23.792;2023-02-28T08:59:13;98479.00;;;7.70;92.17
57086;BME280;42964;42.910;23.792;2023-02-28T09:04:12;98504.91;;;7.73;92.96
57086;BME280;42964;42.910;23.792;2023-02-28T09:09:11;98471.25;;;7.69;91.88
57086;BME280;42964;42.910;23.792;2023-02-28T09:14:10;98488.31;;;8.03;90.97
57086;BME280;42964;42.910;23.792;2023-02-28T09:19:12;98492.44;;;7.93;91.16
57086;BME280;42964;42.910;23.792;2023-02-28T09:24:11;98433.47;;;7.74;90.75
57086;BME280;42964;42.910;23.792;2023-02-28T09:29:12;98482.75;;;7.84;89.30
57086;BME280;42964;42.910;23.792;2023-02-28T09:34:13;98482.91;;;7.91;89.35
57086;BME280;42964;42.910;23.792;2023-02-28T09:39:12;98480.22;;;7.86;88.99
57086;BME280;42964;42.910;23.792;2023-02-28T09:44:29;98476.88;;;7.90;90.15
57086;BME280;42964;42.910;23.792;2023-02-28T09:49:40;98471.75;;;7.54;90.62
57086;BME280;42964;42.910;23.792;2023-02-28T09:54:40;98489.50;;;7.40;90.66
57086;BME280;42964;42.910;23.792;2023-02-28T09:59:58;98196.03;;;5.49;91.94
57086;BME280;42964;42.910;23.792;2023-02-28T10:05:26;98483.97;;;7.26;91.96
57086;BME280;42964;42.910;23.792;2023-02-28T10:10:47;98478.81;;;7.26;93.00
57086;BME280;42964;42.910;23.792;2023-02-28T10:15:52;98472.78;;;7.25;92.69
57086;BME280;42964;42.910;23.792;2023-02-28T10:20:54;98476.69;;;7.43;92.34
57086;BME280;42964;42.910;23.792;2023-02-28T10:25:59;98454.50;;;7.16;92.73
57086;BME280;42964;42.910;23.792;2023-02-28T10:30:59;98462.03;;;7.07;91.94
57086;BME280;42964;42.910;23.792;2023-02-28T10:35:58;98474.56;;;7.28;92.98
57086;BME280;42964;42.910;23.792;2023-02-28T10:41:10;98460.22;;;7.03;93.36
57086;BME280;42964;42.910;23.792;2023-02-28T10:51:12;98452.03;;;7.21;93.55
57086;BME280;42964;42.910;23.792;2023-02-28T11:01:20;98439.63;;;7.41;93.63
57086;BME280;42964;42.910;23.792;2023-02-28T11:06:31;98447.81;;;7.24;93.77
57086;BME280;42964;42.910;23.792;2023-02-28T11:11:42;98426.63;;;7.01;93.78
57086;BME280;42964;42.910;23.792;2023-02-28T11:16:42;98438.53;;;7.31;94.05
57086;BME280;42964;42.910;23.792;2023-02-28T11:21:52;98428.16;;;7.30;93.61
57086;BME280;42964;42.910;23.792;2023-02-28T11:26:52;98428.25;;;7.34;92.70
57086;BME280;42964;42.910;23.792;2023-02-28T11:37:18;98443.44;;;7.20;93.35
57086;BME280;42964;42.910;23.792;2023-02-28T11:52:52;98440.69;;;6.78;95.50
57086;BME280;42964;42.910;23.792;2023-02-28T12:29:51;98470.94;;;5.88;99.69
57086;BME280;42964;42.910;23.792;2023-02-28T12:35:18;98474.38;;;5.89;99.75
57086;BME280;42964;42.910;23.792;2023-02-28T12:40:23;98471.00;;;5.91;99.81
57086;BME280;42964;42.910;23.792;2023-02-28T12:45:26;98464.38;;;5.71;100.00
57086;BME280;42964;42.910;23.792;2023-02-28T12:50:27;98385.13;;;5.02;100.00
57086;BME280;42964;42.910;23.792;2023-02-28T12:55:43;98443.28;;;5.25;100.00
57086;BME280;42964;42.910;23.792;2023-02-28T13:01:08;98428.56;;;4.94;100.00
57086;BME280;42964;42.910;23.792;2023-02-28T13:11:48;98454.44;;;5.26;100.00
57086;BME280;42964;42.910;23.792;2023-02-28T13:22:19;98457.88;;;4.99;100.00
57086;BME280;42964;42.910;23.792;2023-02-28T13:42:50;98437.38;;;5.01;100.00
57086;BME280;42964;42.910;23.792;2023-02-28T13:48:03;98437.81;;;4.89;100.00
57086;BME280;42964;42.910;23.792;2023-02-28T14:09:06;98435.31;;;4.92;100.00
57086;BME280;42964;42.910;23.792;2023-02-28T14:19:37;98442.41;;;4.98;100.00
57086;BME280;42964;42.910;23.792;2023-02-28T14:25:04;98437.38;;;5.01;100.00
57086;BME280;42964;42.910;23.792;2023-02-28T14:35:53;98265.13;;;3.70;100.00
57086;BME280;42964;42.910;23.792;2023-02-28T14:41:01;98453.31;;;4.92;100.00
57086;BME280;42964;42.910;23.792;2023-02-28T14:46:03;98451.59;;;4.91;100.00
57086;BME280;42964;42.910;23.792;2023-02-28T14:51:03;98459.59;;;4.99;100.00
57086;BME280;42964;42.910;23.792;2023-02-28T14:56:03;98430.97;;;4.89;100.00
57086;BME280;42964;42.910;23.792;2023-02-28T15:01:03;98460.88;;;4.86;100.00
57086;BME280;42964;42.910;23.792;2023-02-28T15:11:17;98449.56;;;4.81;100.00
57086;BME280;42964;42.910;23.792;2023-02-28T15:26:33;98469.38;;;4.85;100.00
57086;BME280;42964;42.910;23.792;2023-02-28T15:31:44;98454.72;;;4.82;100.00
57086;BME280;42964;42.910;23.792;2023-02-28T15:36:43;98457.69;;;4.67;100.00
57086;BME280;42964;42.910;23.792;2023-02-28T15:41:42;98468.59;;;4.60;100.00
57086;BME280;42964;42.910;23.792;2023-02-28T15:47:17;98472.88;;;4.61;100.00
57086;BME280;42964;42.910;23.792;2023-02-28T15:52:39;98481.44;;;4.60;100.00
57086;BME280;42964;42.910;23.792;2023-02-28T15:57:40;98477.31;;;4.65;100.00
57086;BME280;42964;42.910;23.792;2023-02-28T16:02:39;98456.72;;;4.40;100.00
57086;BME280;42964;42.910;23.792;2023-02-28T16:07:41;98481.66;;;4.42;100.00
57086;BME280;42964;42.910;23.792;2023-02-28T16:12:41;98483.69;;;4.51;100.00
57086;BME280;42964;42.910;23.792;2023-02-28T16:17:40;98470.44;;;4.40;100.00
57086;BME280;42964;42.910;23.792;2023-02-28T16:22:39;98487.72;;;4.44;100.00
57086;BME280;42964;42.910;23.792;2023-02-28T16:27:38;98495.47;;;4.20;100.00
57086;BME280;42964;42.910;23.792;2023-02-28T16:32:37;98495.88;;;4.33;100.00
57086;BME280;42964;42.910;23.792;2023-02-28T16:37:36;98443.66;;;4.08;100.00
57086;BME280;42964;42.910;23.792;2023-02-28T16:42:37;98510.19;;;4.50;100.00
57086;BME280;42964;42.910;23.792;2023-02-28T16:47:36;98499.31;;;4.57;100.00
57086;BME280;42964;42.910;23.792;2023-02-28T16:52:35;98504.81;;;4.68;100.00
57086;BME280;42964;42.910;23.792;2023-02-28T16:57:34;98521.44;;;4.78;100.00
57086;BME280;42964;42.910;23.792;2023-02-28T17:02:34;98536.34;;;4.62;100.00
57086;BME280;42964;42.910;23.792;2023-02-28T17:07:33;98512.88;;;4.53;100.00
57086;BME280;42964;42.910;23.792;2023-02-28T17:12:32;98530.47;;;4.66;100.00
57086;BME280;42964;42.910;23.792;2023-02-28T17:17:30;98529.75;;;4.70;100.00
57086;BME280;42964;42.910;23.792;2023-02-28T17:22:29;98523.84;;;4.73;100.00
57086;BME280;42964;42.910;23.792;2023-02-28T17:27:28;98521.38;;;4.50;100.00
57086;BME280;42964;42.910;23.792;2023-02-28T17:32:27;98520.38;;;4.47;100.00
57086;BME280;42964;42.910;23.792;2023-02-28T17:37:26;98516.88;;;4.21;100.00
57086;BME280;42964;42.910;23.792;2023-02-28T17:42:25;98509.34;;;4.03;100.00
57086;BME280;42964;42.910;23.792;2023-02-28T17:47:24;98465.44;;;3.73;100.00
57086;BME280;42964;42.910;23.792;2023-02-28T17:52:23;98509.00;;;4.16;100.00
57086;BME280;42964;42.910;23.792;2023-02-28T17:57:22;98504.91;;;4.21;100.00
57086;BME280;42964;42.910;23.792;2023-02-28T18:02:21;98496.28;;;4.43;100.00
57086;BME280;42964;42.910;23.792;2023-02-28T18:07:21;98478.47;;;4.49;100.00
57086;BME280;42964;42.910;23.792;2023-02-28T18:12:20;98498.19;;;4.75;100.00
57086;BME280;42964;42.910;23.792;2023-02-28T18:17:19;98488.28;;;4.85;100.00
57086;BME280;42964;42.910;23.792;2023-02-28T18:22:18;98492.38;;;5.04;100.00
57086;BME280;42964;42.910;23.792;2023-02-28T18:27:17;98491.59;;;5.07;100.00
57086;BME280;42964;42.910;23.792;2023-02-28T18:32:16;98482.78;;;5.00;100.00
57086;BME280;42964;42.910;23.792;2023-02-28T18:37:15;98422.84;;;4.77;100.00
57086;BME280;42964;42.910;23.792;2023-02-28T18:42:16;98467.84;;;5.16;100.00
57086;BME280;42964;42.910;23.792;2023-02-28T18:47:15;98483.69;;;5.28;100.00
57086;BME280;42964;42.910;23.792;2023-02-28T18:52:14;98494.34;;;5.40;100.00
57086;BME280;42964;42.910;23.792;2023-02-28T18:57:13;98500.72;;;5.24;100.00
57086;BME280;42964;42.910;23.792;2023-02-28T19:02:11;98517.78;;;5.21;100.00
57086;BME280;42964;42.910;23.792;2023-02-28T19:07:10;98507.75;;;5.03;100.00
57086;BME280;42964;42.910;23.792;2023-02-28T19:12:09;98469.44;;;4.86;100.00
57086;BME280;42964;42.910;23.792;2023-02-28T19:17:08;98529.88;;;5.25;100.00
57086;BME280;42964;42.910;23.792;2023-02-28T19:22:07;98522.69;;;5.15;100.00
57086;BME280;42964;42.910;23.792;2023-02-28T19:27:06;98500.22;;;4.83;100.00
57086;BME280;42964;42.910;23.792;2023-02-28T19:32:05;98530.06;;;4.80;100.00
57086;BME280;42964;42.910;23.792;2023-02-28T19:37:04;98523.97;;;4.52;100.00
57086;BME280;42964;42.910;23.792;2023-02-28T19:42:03;98530.13;;;4.32;100.00
57086;BME280;42964;42.910;23.792;2023-02-28T19:47:02;98531.34;;;3.96;100.00
57086;BME280;42964;42.910;23.792;2023-02-28T19:52:01;98540.59;;;3.91;100.00
57086;BME280;42964;42.910;23.792;2023-02-28T19:57:00;98544.50;;;4.04;100.00
57086;BME280;42964;42.910;23.792;2023-02-28T20:01:59;98528.16;;;4.24;100.00
57086;BME280;42964;42.910;23.792;2023-02-28T20:06:58;98534.75;;;4.42;100.00
57086;BME280;42964;42.910;23.792;2023-02-28T20:11:57;98540.06;;;4.46;100.00
57086;BME280;42964;42.910;23.792;2023-02-28T20:17:00;98532.19;;;4.42;100.00
57086;BME280;42964;42.910;23.792;2023-02-28T20:22:00;98535.56;;;4.17;100.00
57086;BME280;42964;42.910;23.792;2023-02-28T20:27:00;98515.56;;;4.08;100.00
57086;BME280;42964;42.910;23.792;2023-02-28T20:31:59;98526.28;;;4.20;100.00
57086;BME280;42964;42.910;23.792;2023-02-28T20:36:58;98523.38;;;4.11;100.00
57086;BME280;42964;42.910;23.792;2023-02-28T20:41:57;98512.59;;;4.21;100.00
57086;BME280;42964;42.910;23.792;2023-02-28T20:46:56;98485.03;;;3.93;100.00
57086;BME280;42964;42.910;23.792;2023-02-28T20:51:55;98515.16;;;4.21;100.00
57086;BME280;42964;42.910;23.792;2023-02-28T20:56:54;98501.13;;;4.12;100.00
57086;BME280;42964;42.910;23.792;2023-02-28T21:01:53;98502.59;;;4.05;100.00
57086;BME280;42964;42.910;23.792;2023-02-28T21:06:53;98500.53;;;3.96;100.00
57086;BME280;42964;42.910;23.792;2023-02-28T21:11:53;98493.00;;;4.01;100.00
57086;BME280;42964;42.910;23.792;2023-02-28T21:16:52;98504.53;;;4.11;100.00
57086;BME280;42964;42.910;23.792;2023-02-28T21:21:53;98504.78;;;4.18;100.00
57086;BME280;42964;42.910;23.792;2023-02-28T21:26:52;98510.00;;;4.44;100.00
57086;BME280;42964;42.910;23.792;2023-02-28T21:31:51;98506.91;;;4.54;100.00
57086;BME280;42964;42.910;23.792;2023-02-28T21:36:50;98518.53;;;4.68;100.00
57086;BME280;42964;42.910;23.792;2023-02-28T21:41:49;98501.63;;;4.75;100.00
57086;BME280;42964;42.910;23.792;2023-02-28T21:46:50;98513.78;;;4.79;100.00
57086;BME280;42964;42.910;23.792;2023-02-28T21:51:52;98466.38;;;4.21;100.00
57086;BME280;42964;42.910;23.792;2023-02-28T21:56:51;98512.81;;;4.52;100.00
57086;BME280;42964;42.910;23.792;2023-02-28T22:01:50;98495.00;;;4.56;100.00
57086;BME280;42964;42.910;23.792;2023-02-28T22:06:52;98464.47;;;4.16;100.00
57086;BME280;42964;42.910;23.792;2023-02-28T22:11:51;98471.91;;;4.34;100.00
57086;BME280;42964;42.910;23.792;2023-02-28T22:16:50;98497.94;;;4.43;100.00
57086;BME280;42964;42.910;23.792;2023-02-28T22:21:50;98505.75;;;4.22;100.00
57086;BME280;42964;42.910;23.792;2023-02-28T22:26:51;98463.88;;;3.54;100.00
57086;BME280;42964;42.910;23.792;2023-02-28T22:31:50;98506.25;;;3.88;100.00
57086;BME280;42964;42.910;23.792;2023-02-28T22:36:49;98506.94;;;4.06;100.00
57086;BME280;42964;42.910;23.792;2023-02-28T22:41:48;98504.28;;;4.04;100.00
57086;BME280;42964;42.910;23.792;2023-02-28T22:46:52;98507.03;;;4.09;100.00
57086;BME280;42964;42.910;23.792;2023-02-28T22:51:51;98504.84;;;4.20;100.00
57086;BME280;42964;42.910;23.792;2023-02-28T22:56:50;98498.72;;;4.40;100.00
57086;BME280;42964;42.910;23.792;2023-02-28T23:01:49;98504.75;;;4.41;100.00
57086;BME280;42964;42.910;23.792;2023-02-28T23:06:48;98500.81;;;4.50;100.00
57086;BME280;42964;42.910;23.792;2023-02-28T23:11:48;98498.81;;;4.67;100.00
57086;BME280;42964;42.910;23.792;2023-02-28T23:16:51;98493.97;;;4.77;100.00
57086;BME280;42964;42.910;23.792;2023-02-28T23:21:52;98487.13;;;4.77;100.00
57086;BME280;42964;42.910;23.792;2023-02-28T23:26:54;98491.75;;;4.87;100.00
57086;BME280;42964;42.910;23.792;2023-02-28T23:31:53;98454.47;;;4.75;100.00
57086;BME280;42964;42.910;23.792;2023-02-28T23:36:53;98486.38;;;5.05;100.00
57086;BME280;42964;42.910;23.792;2023-02-28T23:41:53;98423.72;;;4.78;100.00
57086;BME280;42964;42.910;23.792;2023-02-28T23:46:52;98443.34;;;5.00;100.00
57086;BME280;42964;42.910;23.792;2023-02-28T23:51:51;98467.22;;;5.23;100.00
57086;BME280;42964;42.910;23.792;2023-02-28T23:56:51;98438.09;;;5.24;100.00
